createdAt,value
2023-05-06T00:01:58.599Z,99.90
2023-05-06T00:04:30.294Z,99.90
2023-05-06T00:07:00.086Z,99.90
2023-05-06T00:09:30.083Z,99.90
2023-05-06T00:11:59.799Z,99.90
2023-05-06T00:14:29.722Z,99.90
2023-05-06T00:16:59.429Z,99.90
2023-05-06T00:19:31.486Z,99.90
2023-05-06T00:22:01.194Z,99.90
2023-05-06T00:24:32.036Z,99.90
2023-05-06T00:27:05.740Z,99.90
2023-05-06T00:29:37.192Z,99.90
2023-05-06T00:32:07.897Z,99.90
2023-05-06T00:34:39.838Z,99.90
2023-05-06T00:37:11.534Z,99.90
2023-05-06T00:39:41.661Z,99.90
2023-05-06T00:42:11.267Z,99.90
2023-05-06T00:44:41.386Z,99.90
2023-05-06T00:47:11.712Z,99.90
2023-05-06T00:49:43.553Z,99.90
2023-05-06T00:52:13.475Z,99.90
2023-05-06T00:54:43.595Z,99.90
2023-05-06T00:57:13.397Z,99.90
2023-05-06T00:59:44.145Z,99.90
2023-05-06T01:02:14.200Z,99.90
2023-05-06T01:04:45.766Z,99.90
2023-05-06T01:07:26.175Z,99.90
2023-05-06T01:10:04.393Z,99.90
2023-05-06T01:12:39.133Z,99.90
2023-05-06T01:15:13.541Z,99.90
2023-05-06T01:17:47.477Z,99.90
2023-05-06T01:20:21.451Z,99.90
2023-05-06T01:22:51.784Z,99.90
2023-05-06T01:25:24.145Z,99.90
2023-05-06T01:27:54.061Z,99.90
2023-05-06T01:30:29.200Z,99.90
2023-05-06T01:33:06.083Z,99.90
2023-05-06T01:35:42.756Z,99.90
2023-05-06T01:38:23.732Z,99.90
2023-05-06T01:40:57.950Z,99.90
2023-05-06T01:43:32.152Z,99.90
2023-05-06T01:46:03.415Z,99.90
2023-05-06T01:48:35.785Z,99.90
2023-05-06T01:51:06.282Z,99.90
2023-05-06T01:53:35.898Z,99.90
2023-05-06T01:56:07.663Z,99.90
2023-05-06T01:58:37.875Z,99.90
2023-05-06T02:01:08.416Z,99.90
2023-05-06T02:03:39.139Z,99.90
2023-05-06T02:06:10.080Z,99.90
2023-05-06T02:08:42.252Z,99.90
2023-05-06T02:11:16.885Z,99.90
2023-05-06T02:13:47.909Z,99.90
2023-05-06T02:16:18.278Z,99.90
2023-05-06T02:18:50.000Z,99.90
2023-05-06T02:21:21.651Z,99.90
2023-05-06T02:23:51.577Z,99.90
2023-05-06T02:26:23.422Z,99.90
2023-05-06T02:28:53.160Z,99.90
2023-05-06T02:31:23.125Z,99.90
2023-05-06T02:33:53.180Z,99.90
2023-05-06T02:36:23.700Z,99.90
2023-05-06T02:38:53.512Z,99.90
2023-05-06T02:41:26.802Z,99.90
2023-05-06T02:43:57.446Z,99.90
2023-05-06T02:46:28.057Z,99.90
2023-05-06T02:49:00.330Z,99.90
2023-05-06T02:51:30.158Z,99.90
2023-05-06T02:54:00.364Z,99.90
2023-05-06T02:56:32.040Z,99.90
2023-05-06T02:59:02.646Z,99.90
2023-05-06T03:01:32.707Z,99.90
2023-05-06T03:04:02.842Z,99.90
2023-05-06T03:06:33.306Z,99.90
2023-05-06T03:09:03.227Z,99.90
2023-05-06T03:11:35.085Z,99.90
2023-05-06T03:14:08.086Z,99.90
2023-05-06T03:16:38.206Z,99.90
2023-05-06T03:19:08.517Z,99.90
2023-05-06T03:21:39.160Z,99.90
2023-05-06T03:24:09.587Z,99.90
2023-05-06T03:26:41.020Z,99.90
2023-05-06T03:29:11.759Z,99.90
2023-05-06T03:31:42.416Z,99.90
2023-05-06T03:34:13.237Z,99.90
2023-05-06T03:36:43.102Z,99.90
2023-05-06T03:39:13.354Z,99.90
2023-05-06T03:41:44.719Z,99.90
2023-05-06T03:44:14.739Z,99.90
2023-05-06T03:46:45.002Z,99.90
2023-05-06T03:49:17.421Z,99.90
2023-05-06T03:51:53.785Z,99.90
2023-05-06T03:54:26.158Z,99.90
2023-05-06T03:56:57.811Z,99.90
2023-05-06T03:59:28.342Z,99.90
2023-05-06T04:01:59.519Z,99.90
2023-05-06T04:04:30.429Z,99.90
2023-05-06T04:07:01.152Z,99.90
2023-05-06T04:09:36.688Z,99.90
2023-05-06T04:12:11.636Z,99.90
2023-05-06T04:14:43.590Z,99.90
2023-05-06T04:17:13.714Z,99.90
2023-05-06T04:19:44.756Z,99.90
2023-05-06T04:22:14.551Z,99.90
2023-05-06T04:24:46.206Z,99.90
2023-05-06T04:27:19.616Z,99.90
2023-05-06T04:29:49.747Z,99.90
2023-05-06T04:32:21.281Z,99.90
2023-05-06T04:34:52.228Z,99.90
2023-05-06T04:37:24.497Z,99.90
2023-05-06T04:40:02.614Z,99.90
2023-05-06T04:42:35.201Z,99.90
2023-05-06T04:45:13.093Z,99.90
2023-05-06T04:47:46.986Z,99.90
2023-05-06T04:50:17.916Z,99.90
2023-05-06T04:52:47.842Z,99.90
2023-05-06T04:55:19.400Z,99.90
2023-05-06T04:57:55.562Z,99.90
2023-05-06T05:00:26.600Z,99.90
2023-05-06T05:02:57.096Z,99.90
2023-05-06T05:05:26.939Z,99.90
2023-05-06T05:07:57.262Z,99.90
2023-05-06T05:10:29.128Z,99.90
2023-05-06T05:13:00.903Z,99.90
2023-05-06T05:15:31.311Z,99.90
2023-05-06T05:18:01.958Z,99.90
2023-05-06T05:20:31.766Z,99.90
2023-05-06T05:23:04.020Z,99.90
2023-05-06T05:25:35.878Z,99.90
2023-05-06T05:28:08.049Z,99.90
2023-05-06T05:30:40.524Z,99.90
2023-05-06T05:33:12.120Z,99.90
2023-05-06T05:35:43.111Z,99.90
2023-05-06T05:38:14.567Z,99.90
2023-05-06T05:40:44.676Z,99.90
2023-05-06T05:43:16.748Z,99.90
2023-05-06T05:45:46.762Z,99.90
2023-05-06T05:48:17.233Z,99.90
2023-05-06T05:50:47.912Z,99.90
2023-05-06T05:53:17.830Z,99.90
2023-05-06T05:55:48.146Z,99.90
2023-05-06T05:58:19.608Z,99.90
2023-05-06T06:00:49.823Z,99.90
2023-05-06T06:03:21.462Z,99.90
2023-05-06T06:05:53.258Z,99.90
2023-05-06T06:08:23.568Z,99.90
2023-05-06T06:10:55.209Z,99.90
2023-05-06T06:13:30.810Z,99.90
2023-05-06T06:16:02.379Z,99.90
2023-05-06T06:18:32.026Z,99.90
2023-05-06T06:21:01.828Z,99.90
2023-05-06T06:23:31.861Z,99.90
2023-05-06T06:26:02.786Z,99.90
2023-05-06T06:28:34.759Z,99.90
2023-05-06T06:31:04.776Z,99.90
2023-05-06T06:33:35.813Z,99.90
2023-05-06T06:36:06.245Z,99.90
2023-05-06T06:38:36.148Z,99.90
2023-05-06T06:41:06.478Z,99.90
2023-05-06T06:43:39.134Z,99.90
2023-05-06T06:46:22.796Z,99.90
2023-05-06T06:48:52.810Z,99.90
2023-05-06T06:51:22.619Z,99.90
2023-05-06T06:53:53.659Z,99.90
2023-05-06T06:56:23.674Z,99.90
2023-05-06T06:58:55.748Z,99.90
2023-05-06T07:01:25.876Z,99.90
2023-05-06T07:03:55.725Z,99.90
2023-05-06T07:06:27.538Z,99.90
2023-05-06T07:08:58.160Z,99.90
2023-05-06T07:11:28.076Z,99.90
2023-05-06T07:13:59.531Z,99.90
2023-05-06T07:16:29.142Z,99.60
2023-05-06T07:18:58.938Z,99.70
2023-05-06T07:21:28.966Z,99.70
2023-05-06T07:23:59.283Z,99.90
2023-05-06T07:26:29.097Z,99.90
2023-05-06T07:29:01.120Z,99.90
2023-05-06T07:31:31.270Z,99.90
2023-05-06T07:34:01.063Z,99.90
2023-05-06T07:36:37.321Z,99.90
2023-05-06T07:39:08.384Z,99.90
2023-05-06T07:41:38.207Z,99.90
2023-05-06T07:44:09.773Z,99.90
2023-05-06T07:46:40.275Z,99.90
2023-05-06T07:49:10.192Z,99.80
2023-05-06T07:51:40.008Z,99.00
2023-05-06T07:54:09.820Z,99.30
2023-05-06T07:56:39.531Z,99.50
2023-05-06T07:59:10.983Z,99.20
2023-05-06T08:01:40.504Z,99.00
2023-05-06T08:04:10.479Z,98.50
2023-05-06T08:06:40.218Z,97.90
2023-05-06T08:09:12.794Z,98.00
2023-05-06T08:11:43.421Z,97.70
2023-05-06T08:14:14.879Z,96.70
2023-05-06T08:16:45.384Z,95.50
2023-05-06T08:19:15.439Z,96.50
2023-05-06T08:21:45.237Z,96.60
2023-05-06T08:24:16.074Z,95.60
2023-05-06T08:26:45.882Z,96.00
2023-05-06T08:29:17.340Z,96.50
2023-05-06T08:31:47.179Z,95.70
2023-05-06T08:34:21.055Z,95.00
2023-05-06T08:36:50.967Z,96.70
2023-05-06T08:39:20.673Z,96.20
2023-05-06T08:41:52.323Z,95.80
2023-05-06T08:44:26.350Z,95.30
2023-05-06T08:46:56.567Z,94.90
2023-05-06T08:49:26.485Z,95.40
2023-05-06T08:51:57.317Z,95.20
2023-05-06T08:54:28.044Z,94.90
2023-05-06T08:57:01.145Z,93.30
2023-05-06T08:59:34.431Z,94.50
2023-05-06T09:02:04.421Z,94.60
2023-05-06T09:04:34.882Z,93.90
2023-05-06T09:07:04.690Z,93.10
2023-05-06T09:09:34.608Z,94.60
2023-05-06T09:12:04.347Z,95.10
2023-05-06T09:14:35.660Z,94.30
2023-05-06T09:17:05.707Z,94.10
2023-05-06T09:19:40.815Z,92.90
2023-05-06T09:22:11.565Z,92.70
2023-05-06T09:24:41.681Z,92.20
2023-05-06T09:27:12.300Z,93.00
2023-05-06T09:30:02.610Z,91.50
2023-05-06T09:32:33.346Z,91.70
2023-05-06T09:35:03.859Z,90.70
2023-05-06T09:37:33.675Z,88.70
2023-05-06T09:40:03.779Z,89.80
2023-05-06T09:42:33.804Z,90.10
2023-05-06T09:45:10.470Z,86.70
2023-05-06T09:47:41.279Z,90.20
2023-05-06T09:50:12.149Z,90.20
2023-05-06T09:52:41.955Z,86.00
2023-05-06T09:55:13.928Z,87.80
2023-05-06T09:57:44.486Z,83.00
2023-05-06T10:00:17.834Z,84.60
2023-05-06T10:02:48.629Z,80.90
2023-05-06T10:05:19.913Z,76.30
2023-05-06T10:07:51.676Z,77.80
2023-05-06T10:10:23.487Z,77.50
2023-05-06T10:12:55.956Z,72.70
2023-05-06T10:15:28.020Z,76.20
2023-05-06T10:17:58.287Z,74.70
2023-05-06T10:20:29.003Z,72.70
2023-05-06T10:23:06.025Z,73.50
2023-05-06T10:25:39.736Z,78.20
2023-05-06T10:28:14.988Z,89.60
2023-05-06T10:30:57.874Z,86.20
2023-05-06T10:33:28.413Z,84.60
2023-05-06T10:36:04.970Z,82.20
2023-05-06T10:38:39.699Z,84.10
2023-05-06T10:41:10.296Z,82.70
2023-05-06T10:43:43.408Z,82.30
2023-05-06T10:46:16.786Z,79.20
2023-05-06T10:49:21.124Z,81.60
2023-05-06T10:52:17.782Z,79.90
2023-05-06T10:54:52.594Z,78.00
2023-05-06T10:57:27.341Z,76.60
2023-05-06T10:59:57.345Z,76.60
2023-05-06T11:02:32.076Z,75.20
2023-05-06T11:05:03.948Z,76.30
2023-05-06T11:07:33.847Z,77.30
2023-05-06T11:10:06.636Z,77.60
2023-05-06T11:12:50.608Z,78.90
2023-05-06T11:15:37.496Z,80.40
2023-05-06T11:18:40.379Z,78.10
2023-05-06T11:21:42.556Z,76.10
2023-05-06T11:24:14.304Z,77.80
2023-05-06T11:26:44.940Z,72.00
2023-05-06T11:29:19.763Z,73.50
2023-05-06T11:31:50.103Z,70.80
2023-05-06T11:34:29.541Z,74.00
2023-05-06T11:37:02.918Z,71.60
2023-05-06T11:39:40.007Z,69.70
2023-05-06T11:42:12.166Z,69.20
2023-05-06T11:44:42.383Z,67.80
2023-05-06T11:47:12.104Z,68.00
2023-05-06T11:49:43.485Z,68.40
2023-05-06T11:52:15.513Z,67.80
2023-05-06T11:54:45.436Z,67.90
2023-05-06T11:57:15.513Z,66.50
2023-05-06T11:59:45.363Z,67.20
2023-05-06T12:02:16.719Z,65.60
2023-05-06T12:04:48.825Z,65.40
2023-05-06T12:07:20.509Z,66.20
2023-05-06T12:09:51.884Z,65.80
2023-05-06T12:12:24.359Z,65.30
2023-05-06T12:14:55.600Z,65.20
2023-05-06T12:17:25.948Z,63.60
2023-05-06T12:19:56.549Z,63.20
2023-05-06T12:22:28.508Z,63.60
2023-05-06T12:24:59.350Z,62.40
2023-05-06T12:27:36.604Z,61.60
2023-05-06T12:30:33.472Z,62.70
2023-05-06T12:33:04.132Z,61.10
2023-05-06T12:35:35.069Z,62.20
2023-05-06T12:38:12.866Z,64.70
2023-05-06T12:40:44.350Z,59.60
2023-05-06T12:43:14.631Z,60.40
2023-05-06T12:45:46.513Z,61.20
2023-05-06T12:48:20.193Z,57.10
2023-05-06T12:50:50.811Z,62.90
2023-05-06T12:53:34.457Z,61.00
2023-05-06T12:56:04.273Z,58.70
2023-05-06T12:58:38.019Z,58.00
2023-05-06T13:01:08.047Z,57.70
2023-05-06T13:03:38.914Z,56.20
2023-05-06T13:06:09.374Z,56.80
2023-05-06T13:08:41.107Z,55.40
2023-05-06T13:11:11.233Z,54.90
2023-05-06T13:13:41.349Z,53.40
2023-05-06T13:16:12.999Z,53.10
2023-05-06T13:18:44.045Z,52.90
2023-05-06T13:21:14.565Z,53.00
2023-05-06T13:23:49.606Z,53.90
2023-05-06T13:26:20.230Z,52.40
2023-05-06T13:28:53.938Z,52.50
2023-05-06T13:31:24.107Z,51.80
2023-05-06T13:33:56.236Z,51.80
2023-05-06T13:36:27.780Z,54.10
2023-05-06T13:38:58.964Z,52.40
2023-05-06T13:41:29.137Z,50.70
2023-05-06T13:43:59.164Z,51.00
2023-05-06T13:46:30.645Z,52.80
2023-05-06T13:49:00.419Z,51.60
2023-05-06T13:51:33.314Z,50.60
2023-05-06T13:54:04.661Z,48.40
2023-05-06T13:56:42.861Z,49.10
2023-05-06T13:59:23.222Z,49.20
2023-05-06T14:01:57.885Z,48.30
2023-05-06T14:04:27.992Z,51.60
2023-05-06T14:06:58.284Z,50.90
2023-05-06T14:13:45.835Z,50.50
2023-05-06T14:16:17.535Z,51.70
2023-05-06T14:18:48.228Z,50.20
2023-05-06T14:21:18.037Z,50.10
2023-05-06T14:23:48.376Z,51.00
2023-05-06T14:26:19.716Z,50.80
2023-05-06T14:28:54.652Z,51.70
2023-05-06T14:31:27.147Z,50.50
2023-05-06T14:33:57.959Z,52.40
2023-05-06T14:37:06.793Z,38.20
2023-05-06T14:39:37.913Z,37.00
2023-05-06T14:42:10.230Z,36.90
2023-05-06T14:44:40.219Z,37.60
2023-05-06T14:47:10.130Z,37.90
2023-05-06T14:49:40.862Z,38.50
2023-05-06T14:52:15.544Z,39.70
2023-05-06T14:54:46.029Z,40.10
2023-05-06T14:57:16.017Z,40.60
2023-05-06T14:59:46.568Z,41.10
2023-05-06T15:02:16.780Z,41.20
2023-05-06T15:04:47.405Z,42.30
2023-05-06T15:07:19.181Z,41.80
2023-05-06T15:09:50.972Z,43.50
2023-05-06T15:12:21.650Z,44.10
2023-05-06T15:14:53.420Z,44.30
2023-05-06T15:17:24.311Z,43.10
2023-05-06T15:19:54.264Z,43.50
2023-05-06T15:22:25.812Z,43.80
2023-05-06T15:24:56.136Z,43.60
2023-05-06T15:27:32.613Z,44.40
2023-05-06T15:30:05.803Z,45.80
2023-05-06T15:32:36.077Z,44.60
2023-05-06T15:35:06.648Z,44.50
2023-05-06T15:37:38.611Z,45.20
2023-05-06T15:40:14.279Z,45.10
2023-05-06T15:42:44.397Z,45.00
2023-05-06T15:45:15.423Z,44.90
2023-05-06T15:47:46.531Z,44.70
2023-05-06T15:50:32.795Z,43.80
2023-05-06T15:53:06.869Z,43.90
2023-05-06T15:55:45.584Z,43.30
2023-05-06T15:58:18.174Z,44.10
2023-05-06T16:00:48.403Z,44.10
2023-05-06T16:03:18.643Z,43.50
2023-05-06T16:05:49.034Z,43.50
2023-05-06T16:08:26.943Z,44.00
2023-05-06T16:10:58.286Z,43.60
2023-05-06T16:13:28.781Z,44.00
2023-05-06T16:16:01.242Z,43.80
2023-05-06T16:18:35.008Z,43.60
2023-05-06T16:21:05.948Z,43.20
2023-05-06T16:23:39.851Z,43.20
2023-05-06T16:26:09.451Z,43.60
2023-05-06T16:28:40.172Z,43.30
2023-05-06T16:31:10.112Z,43.80
2023-05-06T16:33:39.792Z,42.80
2023-05-06T16:36:10.652Z,42.70
2023-05-06T16:38:41.892Z,42.70
2023-05-06T16:41:11.919Z,42.40
2023-05-06T16:43:41.745Z,42.60
2023-05-06T16:46:13.575Z,43.40
2023-05-06T16:48:43.690Z,42.60
2023-05-06T16:51:16.078Z,43.40
2023-05-06T16:53:48.135Z,43.50
2023-05-06T16:56:18.460Z,43.40
2023-05-06T16:58:48.278Z,43.70
2023-05-06T17:01:18.262Z,43.90
2023-05-06T17:03:48.208Z,44.50
2023-05-06T17:06:18.115Z,44.70
2023-05-06T17:08:49.457Z,45.20
2023-05-06T17:11:19.168Z,45.10
2023-05-06T17:13:48.876Z,44.70
2023-05-06T17:16:19.028Z,44.10
2023-05-06T17:18:48.856Z,43.20
2023-05-06T17:21:18.827Z,46.00
2023-05-06T17:23:51.099Z,46.20
2023-05-06T17:26:21.242Z,47.20
2023-05-06T17:28:51.543Z,47.60
2023-05-06T17:31:22.418Z,47.30
2023-05-06T17:33:52.502Z,47.30
2023-05-06T17:36:22.516Z,47.40
2023-05-06T17:39:03.172Z,48.50
2023-05-06T17:41:34.018Z,49.70
2023-05-06T17:44:04.343Z,50.40
2023-05-06T17:46:34.516Z,51.10
2023-05-06T17:49:04.485Z,50.60
2023-05-06T17:51:34.274Z,51.90
2023-05-06T17:54:05.583Z,52.40
2023-05-06T17:56:35.550Z,52.50
2023-05-06T17:59:05.981Z,52.60
2023-05-06T18:01:35.902Z,52.80
2023-05-06T18:04:05.849Z,52.50
2023-05-06T18:06:35.932Z,52.50
2023-05-06T18:09:07.675Z,53.10
2023-05-06T18:11:37.800Z,53.00
2023-05-06T18:14:07.913Z,52.50
2023-05-06T18:16:38.074Z,51.60
2023-05-06T18:19:08.082Z,49.10
2023-05-06T18:21:37.771Z,48.40
2023-05-06T18:24:16.495Z,49.60
2023-05-06T18:26:46.931Z,51.60
2023-05-06T18:29:16.620Z,53.30
2023-05-06T18:31:46.579Z,52.80
2023-05-06T18:34:16.143Z,53.60
2023-05-06T18:36:45.849Z,54.10
2023-05-06T18:39:17.192Z,55.20
2023-05-06T18:41:46.922Z,56.10
2023-05-06T18:44:16.830Z,55.90
2023-05-06T18:46:46.525Z,56.10
2023-05-06T18:49:16.137Z,56.90
2023-05-06T18:51:46.060Z,62.40
2023-05-06T18:54:17.506Z,66.80
2023-05-06T18:56:47.828Z,67.20
2023-05-06T18:59:18.450Z,66.90
2023-05-06T19:01:48.679Z,68.90
2023-05-06T19:04:18.526Z,71.60
2023-05-06T19:06:48.810Z,72.90
2023-05-06T19:09:21.310Z,74.40
2023-05-06T19:11:51.211Z,74.50
2023-05-06T19:14:22.060Z,76.50
2023-05-06T19:16:52.628Z,80.30
2023-05-06T19:19:22.273Z,82.70
2023-05-06T19:21:52.085Z,82.80
2023-05-06T19:24:23.256Z,84.60
2023-05-06T19:26:53.153Z,85.80
2023-05-06T19:29:23.160Z,88.40
2023-05-06T19:31:53.299Z,90.10
2023-05-06T19:34:23.107Z,90.50
2023-05-06T19:36:52.704Z,91.40
2023-05-06T19:39:24.366Z,92.00
2023-05-06T19:41:55.404Z,92.40
2023-05-06T19:44:25.159Z,92.80
2023-05-06T19:46:57.076Z,93.60
2023-05-06T19:49:27.109Z,94.20
2023-05-06T19:51:57.121Z,95.00
2023-05-06T19:54:28.477Z,94.70
2023-05-06T19:56:58.166Z,94.60
2023-05-06T19:59:30.652Z,94.70
2023-05-06T20:02:03.242Z,94.60
2023-05-06T20:04:34.043Z,94.80
2023-05-06T20:07:03.765Z,94.60
2023-05-06T20:09:35.121Z,94.90
2023-05-06T20:12:05.217Z,95.60
2023-05-06T20:14:36.269Z,95.50
2023-05-06T20:17:06.092Z,95.80
2023-05-06T20:19:35.797Z,95.50
2023-05-06T20:22:05.511Z,95.20
2023-05-06T20:24:37.264Z,94.90
2023-05-06T20:27:07.191Z,94.20
2023-05-06T20:29:37.408Z,94.20
2023-05-06T20:32:07.698Z,94.60
2023-05-06T20:34:37.738Z,94.70
2023-05-06T20:37:07.662Z,94.60
2023-05-06T20:39:38.804Z,94.40
2023-05-06T20:42:09.822Z,94.30
2023-05-06T20:44:39.648Z,94.00
2023-05-06T20:47:12.830Z,94.80
2023-05-06T20:49:42.646Z,94.60
2023-05-06T20:52:15.003Z,94.70
2023-05-06T20:54:46.970Z,94.90
2023-05-06T20:57:19.481Z,95.10
2023-05-06T20:59:52.865Z,95.30
2023-05-06T21:02:23.420Z,95.20
2023-05-06T21:04:53.602Z,95.90
2023-05-06T21:07:23.458Z,96.00
2023-05-06T21:09:54.858Z,96.50
2023-05-06T21:12:24.982Z,97.30
2023-05-06T21:14:54.944Z,97.90
2023-05-06T21:17:24.968Z,97.50
2023-05-06T21:19:54.906Z,97.40
2023-05-06T21:22:26.175Z,97.40
2023-05-06T21:24:57.625Z,97.70
2023-05-06T21:27:27.548Z,97.70
2023-05-06T21:29:57.344Z,97.70
2023-05-06T21:32:33.514Z,97.60
2023-05-06T21:35:04.671Z,97.40
2023-05-06T21:37:36.097Z,97.20
2023-05-06T21:40:08.580Z,96.90
2023-05-06T21:42:38.169Z,96.10
2023-05-06T21:45:09.381Z,95.90
2023-05-06T21:47:39.413Z,95.60
2023-05-06T21:50:10.898Z,95.60
2023-05-06T21:52:40.928Z,95.70
2023-05-06T21:55:12.834Z,95.80
2023-05-06T21:57:44.449Z,95.90
2023-05-06T22:00:15.481Z,95.70
2023-05-06T22:02:45.223Z,95.80
2023-05-06T22:05:15.093Z,95.80
2023-05-06T22:07:45.212Z,96.10
2023-05-06T22:10:16.561Z,96.30
2023-05-06T22:12:46.509Z,96.20
2023-05-06T22:15:16.591Z,96.10
2023-05-06T22:17:46.700Z,96.10
2023-05-06T22:20:17.982Z,96.10
2023-05-06T22:22:48.080Z,96.30
2023-05-06T22:25:19.536Z,96.00
2023-05-06T22:27:49.267Z,95.50
2023-05-06T22:30:19.157Z,95.70
2023-05-06T22:32:49.013Z,96.10
2023-05-06T22:35:19.081Z,96.40
2023-05-06T22:37:48.989Z,96.30
2023-05-06T22:40:20.340Z,96.40
2023-05-06T22:42:49.940Z,96.70
2023-05-06T22:45:19.673Z,96.70
2023-05-06T22:47:49.478Z,96.80
2023-05-06T22:50:19.281Z,97.00
2023-05-06T22:52:48.787Z,97.00
2023-05-06T22:55:20.128Z,96.90
2023-05-06T22:57:50.458Z,97.00
2023-05-06T23:00:20.773Z,97.00
2023-05-06T23:02:51.661Z,97.20
2023-05-06T23:05:21.573Z,97.30
2023-05-06T23:07:51.768Z,97.30
2023-05-06T23:10:23.317Z,97.20
2023-05-06T23:12:53.062Z,96.90
2023-05-06T23:15:23.540Z,96.70
2023-05-06T23:17:53.197Z,96.80
2023-05-06T23:20:23.171Z,96.80
2023-05-06T23:22:52.782Z,96.60
2023-05-06T23:25:24.483Z,96.30
2023-05-06T23:27:54.365Z,96.30
2023-05-06T23:30:24.150Z,96.30
2023-05-06T23:32:54.118Z,96.30
2023-05-06T23:35:23.990Z,96.30
2023-05-06T23:37:53.595Z,96.60
2023-05-06T23:40:25.044Z,96.70
2023-05-06T23:42:54.802Z,96.80
2023-05-06T23:45:24.371Z,97.30
2023-05-06T23:47:54.262Z,97.40
2023-05-06T23:50:24.497Z,97.70
2023-05-06T23:52:54.349Z,97.60
2023-05-06T23:55:26.795Z,97.60
2023-05-06T23:57:56.597Z,97.90
